createdAt,value
2022-12-13T00:00:10.618Z,4.35
2022-12-13T00:04:15.387Z,4.33
2022-12-13T00:08:17.603Z,4.42
2022-12-13T00:12:22.774Z,4.42
2022-12-13T00:16:27.072Z,4.47
2022-12-13T00:20:29.612Z,4.55
2022-12-13T00:24:32.367Z,4.57
2022-12-13T00:28:34.712Z,4.32
2022-12-13T00:32:37.407Z,4.30
2022-12-13T00:36:39.668Z,4.38
2022-12-13T00:40:41.742Z,4.39
2022-12-13T00:44:43.958Z,4.52
2022-12-13T00:48:51.163Z,4.64
2022-12-13T00:52:53.848Z,4.74
2022-12-13T00:56:56.054Z,4.79
2022-12-13T01:01:07.835Z,4.77
2022-12-13T01:05:11.406Z,4.81
2022-12-13T01:09:18.124Z,4.89
2022-12-13T01:13:20.427Z,4.98
2022-12-13T01:17:22.690Z,4.99
2022-12-13T01:21:24.835Z,4.93
2022-12-13T01:25:27.092Z,4.93
2022-12-13T01:29:29.233Z,4.98
2022-12-13T01:33:32.818Z,4.94
2022-12-13T01:37:37.608Z,4.99
2022-12-13T01:41:39.887Z,4.95
2022-12-13T01:45:43.179Z,4.97
2022-12-13T01:49:45.688Z,5.03
2022-12-13T01:53:50.050Z,4.84
2022-12-13T01:57:55.970Z,4.80
2022-12-13T02:02:01.010Z,4.77
2022-12-13T02:06:19.775Z,4.77
2022-12-13T02:10:22.212Z,4.83
2022-12-13T02:14:24.550Z,4.87
2022-12-13T02:18:53.427Z,4.81
2022-12-13T02:23:04.891Z,4.93
2022-12-13T02:27:13.672Z,4.95
2022-12-13T02:31:31.994Z,5.04
2022-12-13T02:36:02.484Z,4.95
2022-12-13T02:40:15.918Z,4.83
2022-12-13T02:44:23.406Z,4.80
2022-12-13T02:48:46.845Z,4.80
2022-12-13T02:52:50.190Z,4.93
2022-12-13T02:57:00.140Z,4.80
2022-12-13T03:01:28.635Z,4.74
2022-12-13T03:06:05.737Z,4.76
2022-12-13T03:10:20.319Z,4.76
2022-12-13T03:14:23.958Z,4.70
2022-12-13T03:18:29.857Z,4.79
2022-12-13T03:22:36.234Z,4.79
2022-12-13T03:26:40.147Z,4.70
2022-12-13T03:30:42.282Z,4.61
2022-12-13T03:34:46.790Z,4.47
2022-12-13T03:38:53.169Z,4.63
2022-12-13T03:42:55.525Z,4.75
2022-12-13T03:46:57.555Z,4.78
2022-12-13T03:51:03.824Z,4.74
2022-12-13T03:55:06.138Z,4.69
2022-12-13T03:59:08.979Z,4.52
2022-12-13T04:03:11.713Z,4.52
2022-12-13T04:07:22.057Z,4.49
2022-12-13T04:11:43.585Z,4.36
2022-12-13T04:15:49.193Z,4.34
2022-12-13T04:19:51.360Z,4.30
2022-12-13T04:23:54.199Z,4.36
2022-12-13T04:27:56.356Z,4.47
2022-12-13T04:31:59.849Z,4.50
2022-12-13T04:36:02.236Z,4.50
2022-12-13T04:40:04.828Z,4.64
2022-12-13T04:44:27.568Z,4.66
2022-12-13T04:48:32.678Z,4.57
2022-12-13T04:52:35.403Z,4.63
2022-12-13T04:56:38.159Z,4.51
2022-12-13T05:00:41.170Z,4.52
2022-12-13T05:04:53.918Z,4.49
2022-12-13T05:09:01.079Z,4.47
2022-12-13T05:13:03.683Z,4.51
2022-12-13T05:17:05.802Z,4.44
2022-12-13T05:21:10.245Z,4.39
2022-12-13T05:25:12.467Z,4.40
2022-12-13T05:29:14.788Z,4.52
2022-12-13T05:33:17.016Z,4.64
2022-12-13T05:37:21.310Z,4.60
2022-12-13T05:41:25.368Z,4.73
2022-12-13T05:45:27.817Z,4.74
2022-12-13T05:49:30.174Z,4.70
2022-12-13T05:53:33.688Z,4.56
2022-12-13T05:57:38.812Z,4.42
2022-12-13T06:01:44.005Z,4.45
2022-12-13T06:05:47.042Z,4.41
2022-12-13T06:09:49.433Z,4.32
2022-12-13T06:13:52.938Z,4.28
2022-12-13T06:18:03.405Z,4.21
2022-12-13T06:22:05.560Z,4.20
2022-12-13T06:26:08.180Z,4.14
2022-12-13T06:30:10.877Z,4.11
2022-12-13T06:34:14.606Z,4.12
2022-12-13T06:38:22.039Z,4.02
2022-12-13T06:42:34.067Z,4.19
2022-12-13T06:46:36.460Z,4.16
2022-12-13T06:50:43.243Z,4.18
2022-12-13T06:54:45.438Z,4.12
2022-12-13T06:58:47.533Z,4.19
2022-12-13T07:02:57.050Z,4.22
2022-12-13T07:07:01.301Z,4.35
2022-12-13T07:11:07.434Z,4.30
2022-12-13T07:15:11.598Z,4.36
2022-12-13T07:19:23.492Z,4.41
2022-12-13T07:23:26.504Z,4.46
2022-12-13T07:27:29.028Z,4.42
2022-12-13T07:31:31.266Z,4.42
2022-12-13T07:35:37.457Z,4.34
2022-12-13T07:39:40.716Z,4.39
2022-12-13T07:43:42.851Z,4.40
2022-12-13T07:47:45.385Z,4.54
2022-12-13T07:51:47.631Z,4.56
2022-12-13T07:55:49.728Z,4.64
2022-12-13T07:59:51.776Z,4.70
2022-12-13T08:03:53.898Z,4.84
2022-12-13T08:07:56.101Z,4.94
2022-12-13T08:11:58.502Z,5.02
2022-12-13T08:16:27.657Z,5.04
2022-12-13T08:20:28.797Z,5.12
2022-12-13T08:24:31.563Z,5.30
2022-12-13T08:28:35.203Z,5.33
2022-12-13T08:32:37.771Z,5.37
2022-12-13T08:36:40.399Z,5.41
2022-12-13T08:40:42.524Z,5.60
2022-12-13T08:44:51.019Z,5.66
2022-12-13T08:48:54.936Z,5.82
2022-12-13T08:52:57.187Z,5.88
2022-12-13T08:56:59.402Z,5.92
2022-12-13T09:01:01.602Z,5.93
2022-12-13T09:05:04.877Z,5.88
2022-12-13T09:09:06.959Z,5.76
2022-12-13T09:13:11.427Z,5.88
2022-12-13T09:17:24.475Z,5.95
2022-12-13T09:21:30.984Z,5.94
2022-12-13T09:25:36.699Z,5.92
2022-12-13T09:29:39.843Z,5.92
2022-12-13T09:33:43.078Z,5.93
2022-12-13T09:37:46.414Z,5.89
2022-12-13T09:41:52.275Z,5.79
2022-12-13T09:46:22.541Z,5.89
2022-12-13T09:50:37.747Z,5.88
2022-12-13T09:54:48.117Z,5.91
2022-12-13T09:58:53.846Z,5.91
2022-12-13T10:02:58.418Z,5.98
2022-12-13T10:07:00.449Z,6.08
2022-12-13T10:11:03.754Z,6.27
2022-12-13T10:15:08.560Z,6.51
2022-12-13T10:19:29.469Z,6.47
2022-12-13T10:23:52.520Z,6.51
2022-12-13T10:27:56.181Z,6.38
2022-12-13T10:31:58.420Z,6.34
2022-12-13T10:36:07.277Z,6.52
2022-12-13T10:40:34.196Z,6.69
2022-12-13T10:44:36.532Z,6.52
2022-12-13T10:48:51.112Z,6.47
2022-12-13T10:52:54.520Z,6.41
2022-12-13T10:57:00.863Z,6.53
2022-12-13T11:01:26.888Z,6.63
2022-12-13T11:05:35.320Z,6.84
2022-12-13T11:09:39.002Z,6.77
2022-12-13T11:13:54.493Z,7.04
2022-12-13T11:18:02.116Z,6.65
2022-12-13T11:22:04.582Z,6.44
2022-12-13T11:26:11.499Z,6.61
2022-12-13T11:30:26.206Z,6.53
2022-12-13T11:34:28.163Z,6.43
2022-12-13T11:38:33.506Z,6.31
2022-12-13T11:42:41.393Z,6.24
2022-12-13T11:46:56.208Z,6.25
2022-12-13T11:51:01.008Z,6.35
2022-12-13T11:55:20.280Z,6.41
2022-12-13T11:59:42.810Z,6.37
2022-12-13T12:03:52.135Z,6.36
2022-12-13T12:08:31.721Z,6.30
2022-12-13T12:12:36.916Z,6.31
2022-12-13T12:16:44.050Z,6.45
2022-12-13T12:20:58.619Z,6.53
2022-12-13T12:25:20.739Z,6.34
2022-12-13T12:29:47.756Z,6.30
2022-12-13T12:34:37.593Z,6.30
2022-12-13T12:38:49.693Z,6.39
2022-12-13T12:43:27.080Z,6.46
2022-12-13T12:52:51.526Z,6.32
2022-12-13T12:57:21.159Z,6.59
2022-12-13T13:01:54.263Z,6.77
2022-12-13T13:06:09.999Z,6.68
2022-12-13T13:10:16.825Z,6.69
2022-12-13T13:14:38.317Z,6.71
2022-12-13T13:18:51.532Z,6.31
2022-12-13T13:23:38.664Z,6.32
2022-12-13T13:27:30.397Z,6.43
2022-12-13T13:32:02.444Z,6.22
2022-12-13T13:36:07.700Z,6.14
2022-12-13T13:40:13.159Z,6.10
2022-12-13T13:44:45.149Z,6.24
2022-12-13T13:48:57.594Z,6.31
2022-12-13T13:53:36.874Z,6.36
2022-12-13T13:58:11.613Z,6.27
2022-12-13T14:02:32.355Z,6.34
2022-12-13T14:07:13.829Z,6.29
2022-12-13T14:11:43.094Z,6.28
2022-12-13T14:15:54.363Z,6.51
2022-12-13T14:20:22.866Z,6.37
2022-12-13T14:24:52.270Z,6.31
2022-12-13T14:28:58.833Z,6.51
2022-12-13T14:33:01.178Z,6.53
2022-12-13T14:37:06.742Z,6.58
2022-12-13T14:41:19.933Z,6.52
2022-12-13T14:45:25.582Z,6.70
2022-12-13T14:49:29.811Z,6.82
2022-12-13T14:53:41.393Z,6.67
2022-12-13T14:57:53.638Z,6.57
2022-12-13T15:02:04.976Z,6.57
2022-12-13T15:06:07.386Z,6.39
2022-12-13T15:10:15.623Z,6.40
2022-12-13T15:14:21.693Z,6.39
2022-12-13T15:18:25.405Z,6.23
2022-12-13T15:22:30.424Z,6.20
2022-12-13T15:26:35.883Z,6.30
2022-12-13T15:30:38.944Z,6.16
2022-12-13T15:34:41.046Z,6.15
2022-12-13T15:38:49.158Z,6.23
2022-12-13T15:42:52.253Z,6.34
2022-12-13T15:47:01.968Z,6.42
2022-12-13T15:51:28.756Z,6.36
2022-12-13T15:55:37.082Z,6.38
2022-12-13T15:59:39.359Z,6.25
2022-12-13T16:03:43.988Z,6.20
2022-12-13T16:07:56.141Z,6.29
2022-12-13T16:12:02.108Z,6.31
2022-12-13T16:16:27.037Z,6.16
2022-12-13T16:20:30.022Z,6.09
2022-12-13T16:24:32.257Z,6.20
2022-12-13T16:28:34.688Z,6.01
2022-12-13T16:33:02.767Z,5.97
2022-12-13T16:37:01.741Z,5.97
2022-12-13T16:41:08.788Z,5.93
2022-12-13T16:49:35.328Z,5.82
2022-12-13T16:53:37.590Z,5.77
2022-12-13T16:57:39.948Z,5.74
2022-12-13T17:01:43.696Z,5.68
2022-12-13T17:05:46.633Z,5.57
2022-12-13T17:09:49.674Z,5.52
2022-12-13T17:13:51.830Z,5.60
2022-12-13T17:17:55.472Z,5.45
2022-12-13T17:21:58.194Z,5.47
2022-12-13T17:26:08.146Z,5.52
2022-12-13T17:30:14.933Z,5.65
2022-12-13T17:34:17.087Z,5.65
2022-12-13T17:38:19.232Z,5.69
2022-12-13T17:42:21.422Z,5.73
2022-12-13T17:46:23.636Z,5.80
2022-12-13T17:50:25.862Z,5.82
2022-12-13T17:54:28.817Z,5.80
2022-12-13T17:58:32.350Z,5.89
2022-12-13T18:02:37.953Z,5.94
2022-12-13T18:06:40.830Z,5.91
2022-12-13T18:10:42.978Z,5.98
2022-12-13T18:14:45.288Z,5.93
2022-12-13T18:18:55.417Z,5.97
2022-12-13T18:22:57.963Z,5.98
2022-12-13T18:27:00.035Z,5.99
2022-12-13T18:31:07.966Z,5.94
2022-12-13T18:35:10.197Z,5.87
2022-12-13T18:39:13.562Z,5.89
2022-12-13T18:43:20.927Z,5.91
2022-12-13T18:47:23.220Z,5.93
2022-12-13T18:51:25.685Z,6.00
2022-12-13T18:55:28.637Z,6.00
2022-12-13T18:59:30.804Z,5.91
2022-12-13T19:03:33.654Z,5.88
2022-12-13T19:07:35.936Z,5.88
2022-12-13T19:11:38.065Z,5.95
2022-12-13T19:15:40.725Z,6.04
2022-12-13T19:19:42.972Z,6.06
2022-12-13T19:23:56.795Z,6.06
2022-12-13T19:27:59.824Z,6.06
2022-12-13T19:32:02.109Z,6.07
2022-12-13T19:36:04.624Z,6.08
2022-12-13T19:40:07.545Z,6.08
2022-12-13T19:44:09.871Z,6.06
2022-12-13T19:48:13.193Z,6.09
2022-12-13T19:52:15.308Z,6.12
2022-12-13T19:56:20.504Z,6.09
2022-12-13T20:00:22.899Z,6.11
2022-12-13T20:04:25.070Z,6.05
2022-12-13T20:08:27.573Z,5.93
2022-12-13T20:12:29.781Z,5.94
2022-12-13T20:16:32.034Z,6.01
2022-12-13T20:21:02.263Z,5.96
2022-12-13T20:24:58.743Z,5.94
2022-12-13T20:29:01.247Z,6.03
2022-12-13T20:33:03.606Z,6.00
2022-12-13T20:37:06.106Z,5.94
2022-12-13T20:41:10.314Z,6.06
2022-12-13T20:45:12.647Z,6.14
2022-12-13T20:49:14.803Z,6.21
2022-12-13T20:53:17.045Z,6.29
2022-12-13T20:57:19.664Z,6.31
2022-12-13T21:01:27.196Z,6.23
2022-12-13T21:05:29.271Z,6.27
2022-12-13T21:09:31.748Z,6.25
2022-12-13T21:13:34.209Z,6.31
2022-12-13T21:17:43.130Z,6.37
2022-12-13T21:21:55.490Z,6.39
2022-12-13T21:25:57.699Z,6.33
2022-12-13T21:29:59.845Z,6.32
2022-12-13T21:34:04.048Z,6.33
2022-12-13T21:38:06.177Z,6.44
2022-12-13T21:42:09.671Z,6.54
2022-12-13T21:46:15.634Z,6.57
2022-12-13T21:50:18.527Z,6.58
2022-12-13T21:54:21.010Z,6.47
2022-12-13T21:58:41.501Z,6.32
2022-12-13T22:02:43.811Z,6.07
2022-12-13T22:06:46.424Z,6.15
2022-12-13T22:11:14.007Z,6.34
2022-12-13T22:15:19.621Z,6.49
2022-12-13T22:19:22.903Z,6.36
2022-12-13T22:23:27.501Z,6.22
2022-12-13T22:27:30.834Z,6.22
2022-12-13T22:31:34.594Z,6.37
2022-12-13T22:35:44.257Z,6.46
2022-12-13T22:39:46.699Z,6.54
2022-12-13T22:43:48.885Z,6.58
2022-12-13T22:47:51.026Z,6.59
2022-12-13T22:51:53.324Z,6.59
2022-12-13T22:56:02.405Z,6.62
2022-12-13T23:00:05.834Z,6.57
2022-12-13T23:04:08.450Z,6.30
2022-12-13T23:08:11.102Z,6.39
2022-12-13T23:12:35.127Z,6.22
2022-12-13T23:16:38.289Z,6.22
2022-12-13T23:20:41.470Z,6.30
2022-12-13T23:24:48.960Z,6.18
2022-12-13T23:28:56.323Z,5.90
2022-12-13T23:32:58.459Z,5.88
2022-12-13T23:37:00.828Z,6.05
2022-12-13T23:41:12.374Z,6.23
2022-12-13T23:45:15.393Z,6.30
2022-12-13T23:49:17.613Z,6.37
2022-12-13T23:53:22.998Z,6.35
2022-12-13T23:57:25.312Z,6.30
